Time;durP1;ratioP1;P1;durP2;ratioP2;P2;SDS_P1;SDS_P2;PMS_P1;PMS_P2;Temp;Humidity;BMP_temperature;BMP_pressure;BME280_temperature;BME280_humidity;BME280_pressure;Samples;Min_cycle;Max_cycle;Signal;HPM_P1;HPM_P2
2022/10/24 00:00:51;;;;;;;4.15;1.02;;;;;;;;;;5122546;28;20203;-67
2022/10/24 00:03:18;;;;;;;2.45;0.93;;;;;;;;;;5122383;28;20199;-67
2022/10/24 00:05:45;;;;;;;3.05;1.00;;;;;;;;;;5122294;28;20195;-67
2022/10/24 00:08:11;;;;;;;7.05;1.40;;;;;;;;;;5122069;28;20490;-67
2022/10/24 00:10:41;;;;;;;1.77;0.90;;;;;;;;;;5122587;28;20195;-67
2022/10/24 00:13:07;;;;;;;5.95;1.23;;;;;;;;;;5122434;28;20218;-67
2022/10/24 00:15:33;;;;;;;1.90;0.90;;;;;;;;;;5122219;28;20209;-67
2022/10/24 00:18:01;;;;;;;4.47;1.23;;;;;;;;;;5122380;28;20541;-67
2022/10/24 00:20:27;;;;;;;2.65;1.13;;;;;;;;;;5122210;28;20201;-67
2022/10/24 00:22:53;;;;;;;4.00;1.10;;;;;;;;;;5122415;28;20381;-67
2022/10/24 00:25:20;;;;;;;3.90;1.10;;;;;;;;;;5122379;28;20199;-67
2022/10/24 00:27:46;;;;;;;4.70;1.08;;;;;;;;;;5122040;28;20211;-67
2022/10/24 00:30:12;;;;;;;6.45;1.10;;;;;;;;;;5122235;28;20195;-67
2022/10/24 00:32:39;;;;;;;7.32;1.40;;;;;;;;;;5122157;28;20202;-67
2022/10/24 00:35:07;;;;;;;3.90;1.10;;;;;;;;;;5122045;28;20202;-67
2022/10/24 00:37:33;;;;;;;5.75;1.20;;;;;;;;;;5122043;28;20202;-67
2022/10/24 00:39:59;;;;;;;5.35;1.40;;;;;;;;;;5122285;28;20202;-68
2022/10/24 00:42:26;;;;;;;3.75;1.00;;;;;;;;;;5121955;28;20186;-67
2022/10/24 00:44:53;;;;;;;2.33;1.42;;;;;;;;;;5126212;28;20203;-68
2022/10/24 00:47:20;;;;;;;3.35;1.00;;;;;;;;;;5125995;28;20202;-68
2022/10/24 00:49:49;;;;;;;3.92;1.10;;;;;;;;;;5125782;28;20199;-67
2022/10/24 00:52:20;;;;;;;2.45;1.10;;;;;;;;;;5126167;28;20195;-67
2022/10/24 00:54:46;;;;;;;4.97;0.95;;;;;;;;;;5126112;28;20199;-67
2022/10/24 00:57:15;;;;;;;16.35;1.45;;;;;;;;;;5125780;27;20274;-67
2022/10/24 00:59:42;;;;;;;4.60;1.33;;;;;;;;;;5125470;28;20404;-67
2022/10/24 01:02:09;;;;;;;2.28;1.10;;;;;;;;;;5126134;27;20202;-67
2022/10/24 01:04:35;;;;;;;6.45;1.20;;;;;;;;;;5125954;28;20520;-67
2022/10/24 01:07:08;;;;;;;11.52;1.33;;;;;;;;;;5125791;28;20494;-67
2022/10/24 01:09:44;;;;;;;10.02;1.45;;;;;;;;;;5125671;28;20191;-67
2022/10/24 01:12:18;;;;;;;1.80;1.02;;;;;;;;;;5125697;28;20396;-67
2022/10/24 01:14:49;;;;;;;4.30;1.10;;;;;;;;;;5125388;28;20525;-67
2022/10/24 01:17:19;;;;;;;6.22;1.27;;;;;;;;;;5125596;27;20199;-67
2022/10/24 01:20:03;;;;;;;3.75;1.02;;;;;;;;;;5125197;28;20223;-67
2022/10/24 01:22:32;;;;;;;6.32;1.20;;;;;;;;;;5125216;28;20225;-67
2022/10/24 01:25:06;;;;;;;6.60;1.42;;;;;;;;;;5125322;28;20199;-67
2022/10/24 01:27:47;;;;;;;8.00;1.58;;;;;;;;;;5125366;28;20229;-67
2022/10/24 01:30:15;;;;;;;5.28;0.95;;;;;;;;;;5125445;28;20439;-67
2022/10/24 01:32:46;;;;;;;6.07;1.00;;;;;;;;;;5125311;28;20202;-67
2022/10/24 01:35:18;;;;;;;6.07;1.38;;;;;;;;;;5125161;28;20199;-67
2022/10/24 01:37:47;;;;;;;4.85;1.10;;;;;;;;;;5125013;28;20207;-67
2022/10/24 01:40:16;;;;;;;4.20;1.65;;;;;;;;;;5125311;28;20206;-67
2022/10/24 01:42:42;;;;;;;3.55;1.10;;;;;;;;;;5125246;28;20509;-67
2022/10/24 01:45:11;;;;;;;3.40;1.20;;;;;;;;;;5124806;28;20308;-67
2022/10/24 01:47:41;;;;;;;4.43;1.15;;;;;;;;;;5124822;28;20213;-67
2022/10/24 01:50:10;;;;;;;7.05;1.63;;;;;;;;;;5124815;28;20385;-67
2022/10/24 01:52:37;;;;;;;6.90;1.40;;;;;;;;;;5123997;27;20191;-67
2022/10/24 01:55:04;;;;;;;3.65;1.25;;;;;;;;;;5123558;28;20517;-68
2022/10/24 01:57:31;;;;;;;7.18;1.48;;;;;;;;;;5124742;28;20201;-67
2022/10/24 01:59:57;;;;;;;7.05;1.52;;;;;;;;;;5124343;28;20468;-66
2022/10/24 02:02:27;;;;;;;3.97;0.95;;;;;;;;;;5124664;28;20195;-68
2022/10/24 02:04:56;;;;;;;5.90;1.48;;;;;;;;;;5124754;28;20218;-66
2022/10/24 02:07:23;;;;;;;4.53;1.48;;;;;;;;;;5124603;28;20494;-66
2022/10/24 02:09:51;;;;;;;5.20;1.30;;;;;;;;;;5124304;28;20222;-66
2022/10/24 02:12:18;;;;;;;3.95;1.40;;;;;;;;;;5124184;27;20203;-66
2022/10/24 02:14:46;;;;;;;6.70;1.23;;;;;;;;;;5123547;28;20203;-68
2022/10/24 02:17:12;;;;;;;5.43;0.85;;;;;;;;;;5124753;28;20195;-67
2022/10/24 02:19:38;;;;;;;5.97;1.50;;;;;;;;;;5124128;28;20219;-68
2022/10/24 02:22:11;;;;;;;8.65;2.00;;;;;;;;;;5124219;28;20196;-66
2022/10/24 02:24:41;;;;;;;9.93;1.70;;;;;;;;;;5124251;28;20203;-66
2022/10/24 02:27:09;;;;;;;5.78;1.83;;;;;;;;;;5123926;28;20203;-66
2022/10/24 02:29:41;;;;;;;7.45;1.30;;;;;;;;;;5124084;27;20516;-66
2022/10/24 02:32:09;;;;;;;6.95;1.67;;;;;;;;;;5124036;28;20209;-66
2022/10/24 02:34:38;;;;;;;8.40;1.67;;;;;;;;;;5124019;28;20202;-66
2022/10/24 02:37:05;;;;;;;7.45;1.95;;;;;;;;;;5123931;28;20202;-66
2022/10/24 02:39:34;;;;;;;5.30;2.13;;;;;;;;;;5123465;28;20217;-66
2022/10/24 02:42:01;;;;;;;10.23;1.70;;;;;;;;;;5123786;28;20195;-67
2022/10/24 02:44:28;;;;;;;3.80;1.42;;;;;;;;;;5124007;28;20209;-67
2022/10/24 02:46:56;;;;;;;7.22;1.50;;;;;;;;;;5124084;28;20260;-67
2022/10/24 02:49:23;;;;;;;11.48;1.63;;;;;;;;;;5123560;28;20195;-67
2022/10/24 02:51:50;;;;;;;11.38;1.95;;;;;;;;;;5123516;28;20282;-67
2022/10/24 02:54:16;;;;;;;13.38;1.90;;;;;;;;;;5123450;28;20517;-67
2022/10/24 02:56:46;;;;;;;6.90;1.50;;;;;;;;;;5123779;28;20222;-67
2022/10/24 02:59:13;;;;;;;7.53;1.58;;;;;;;;;;5123342;28;20222;-67
2022/10/24 03:01:39;;;;;;;7.60;1.58;;;;;;;;;;5123384;28;20195;-67
2022/10/24 03:04:05;;;;;;;6.20;1.95;;;;;;;;;;5123406;28;20228;-67
2022/10/24 03:06:32;;;;;;;5.47;1.70;;;;;;;;;;5122871;28;20199;-67
2022/10/24 03:08:58;;;;;;;12.52;1.90;;;;;;;;;;5123296;28;20202;-67
2022/10/24 03:11:24;;;;;;;5.85;1.80;;;;;;;;;;5123193;28;20203;-67
2022/10/24 03:13:52;;;;;;;6.78;1.88;;;;;;;;;;5123340;28;20202;-67
2022/10/24 03:16:18;;;;;;;6.70;1.90;;;;;;;;;;5123300;28;20270;-67
2022/10/24 03:18:44;;;;;;;11.00;2.30;;;;;;;;;;5122867;28;20392;-67
2022/10/24 03:21:11;;;;;;;7.95;2.00;;;;;;;;;;5122816;28;20195;-67
2022/10/24 03:23:37;;;;;;;12.77;2.13;;;;;;;;;;5122970;27;20268;-67
2022/10/24 03:26:03;;;;;;;8.57;2.30;;;;;;;;;;5123127;28;20195;-67
2022/10/24 03:28:29;;;;;;;6.85;3.38;;;;;;;;;;5122799;28;20557;-67
2022/10/24 03:30:57;;;;;;;12.77;4.22;;;;;;;;;;5122867;28;20195;-67
2022/10/24 03:33:23;;;;;;;8.80;2.88;;;;;;;;;;5122672;28;20195;-67
2022/10/24 03:35:51;;;;;;;13.15;2.95;;;;;;;;;;5122572;28;20214;-67
2022/10/24 03:38:17;;;;;;;7.95;1.85;;;;;;;;;;5122638;28;20520;-67
2022/10/24 03:40:43;;;;;;;6.70;2.55;;;;;;;;;;5122623;28;20218;-67
2022/10/24 03:43:10;;;;;;;5.03;1.77;;;;;;;;;;5122804;28;20490;-67
2022/10/24 03:45:36;;;;;;;9.18;2.05;;;;;;;;;;5122773;28;20194;-67
2022/10/24 03:48:04;;;;;;;5.10;1.98;;;;;;;;;;5122253;28;20199;-67
2022/10/24 03:50:31;;;;;;;6.45;1.80;;;;;;;;;;5122559;28;20387;-67
2022/10/24 03:52:57;;;;;;;6.07;2.03;;;;;;;;;;5122569;28;20196;-67
2022/10/24 03:55:23;;;;;;;6.30;2.10;;;;;;;;;;5122853;28;20195;-67
2022/10/24 03:57:50;;;;;;;10.82;1.90;;;;;;;;;;5122653;28;20486;-67
2022/10/24 04:00:17;;;;;;;10.27;2.20;;;;;;;;;;5122461;28;20452;-67
2022/10/24 04:02:44;;;;;;;4.30;2.13;;;;;;;;;;5122284;28;20191;-67
2022/10/24 04:05:12;;;;;;;6.03;2.13;;;;;;;;;;5122684;28;20431;-67
2022/10/24 04:07:38;;;;;;;2.88;1.73;;;;;;;;;;5122286;28;20404;-67
2022/10/24 04:10:05;;;;;;;7.03;2.22;;;;;;;;;;5122438;28;20198;-68
2022/10/24 04:12:31;;;;;;;14.98;2.65;;;;;;;;;;5122496;28;20203;-67
2022/10/24 04:14:58;;;;;;;10.30;2.20;;;;;;;;;;5122313;28;20492;-67
2022/10/24 04:17:24;;;;;;;10.13;2.22;;;;;;;;;;5121798;28;20209;-67
2022/10/24 04:19:50;;;;;;;11.32;2.58;;;;;;;;;;5126392;28;20215;-67
2022/10/24 04:22:18;;;;;;;8.45;2.15;;;;;;;;;;5126700;28;20201;-67
2022/10/24 04:24:44;;;;;;;5.35;2.35;;;;;;;;;;5126369;28;20194;-67
2022/10/24 04:27:11;;;;;;;6.50;2.45;;;;;;;;;;5126531;28;20195;-67
2022/10/24 04:29:37;;;;;;;7.25;2.70;;;;;;;;;;5126308;28;20191;-67
2022/10/24 04:32:03;;;;;;;8.27;2.53;;;;;;;;;;5126252;28;20201;-67
2022/10/24 04:34:30;;;;;;;6.93;2.60;;;;;;;;;;5126524;28;20218;-67
2022/10/24 04:36:56;;;;;;;7.63;2.30;;;;;;;;;;5126391;28;20198;-67
2022/10/24 04:39:24;;;;;;;13.10;3.08;;;;;;;;;;5125441;28;20223;-67
2022/10/24 04:41:50;;;;;;;8.90;2.80;;;;;;;;;;5125998;28;20199;-67
2022/10/24 04:44:16;;;;;;;10.02;2.63;;;;;;;;;;5126080;28;20186;-67
2022/10/24 04:46:42;;;;;;;7.32;2.80;;;;;;;;;;5125854;27;20449;-67
2022/10/24 04:49:09;;;;;;;17.15;3.13;;;;;;;;;;5126052;28;20191;-67
2022/10/24 04:51:35;;;;;;;10.65;3.28;;;;;;;;;;5126224;28;20195;-67
2022/10/24 04:54:02;;;;;;;8.55;2.78;;;;;;;;;;5125765;28;20197;-67
2022/10/24 04:56:29;;;;;;;8.35;3.20;;;;;;;;;;5125826;27;20525;-67
2022/10/24 04:58:56;;;;;;;6.93;2.90;;;;;;;;;;5125169;27;20194;-67
2022/10/24 05:01:22;;;;;;;12.43;3.47;;;;;;;;;;5125692;28;20511;-66
2022/10/24 05:03:48;;;;;;;9.95;3.03;;;;;;;;;;5125769;28;20195;-69
2022/10/24 05:06:14;;;;;;;11.80;3.05;;;;;;;;;;5125494;28;20199;-67
2022/10/24 05:08:41;;;;;;;15.15;3.58;;;;;;;;;;5125085;27;20194;-67
2022/10/24 05:11:08;;;;;;;11.35;3.50;;;;;;;;;;5125373;28;20206;-67
2022/10/24 05:13:36;;;;;;;12.10;3.63;;;;;;;;;;5125182;28;20195;-67
2022/10/24 05:16:02;;;;;;;10.40;3.60;;;;;;;;;;5125369;28;20516;-67
2022/10/24 05:18:28;;;;;;;7.35;2.92;;;;;;;;;;5125137;28;20195;-67
2022/10/24 05:20:55;;;;;;;8.30;3.40;;;;;;;;;;5125314;28;20222;-67
2022/10/24 05:23:22;;;;;;;9.68;3.58;;;;;;;;;;5125256;28;20202;-67
2022/10/24 05:25:48;;;;;;;12.52;3.30;;;;;;;;;;5125002;28;20233;-67
2022/10/24 05:28:14;;;;;;;9.05;3.30;;;;;;;;;;5124812;28;20555;-67
2022/10/24 05:30:43;;;;;;;10.13;3.33;;;;;;;;;;5124916;28;20202;-67
2022/10/24 05:33:10;;;;;;;8.82;3.58;;;;;;;;;;5125014;28;20203;-67
2022/10/24 05:35:36;;;;;;;7.75;3.88;;;;;;;;;;5124883;28;20195;-69
2022/10/24 05:38:02;;;;;;;7.45;3.53;;;;;;;;;;5124592;28;20225;-69
2022/10/24 05:40:29;;;;;;;13.55;3.92;;;;;;;;;;5124639;28;20229;-69
2022/10/24 05:42:55;;;;;;;11.02;4.00;;;;;;;;;;5124468;28;20207;-69
2022/10/24 05:45:22;;;;;;;12.07;4.25;;;;;;;;;;5124847;28;20195;-69
2022/10/24 05:47:49;;;;;;;13.93;3.40;;;;;;;;;;5124435;28;20221;-69
2022/10/24 05:50:16;;;;;;;16.20;3.45;;;;;;;;;;5124638;28;20225;-70
2022/10/24 05:52:42;;;;;;;15.55;3.85;;;;;;;;;;5124624;28;20195;-70
2022/10/24 05:55:09;;;;;;;14.25;4.60;;;;;;;;;;5124655;28;20539;-70
2022/10/24 05:57:36;;;;;;;11.82;4.50;;;;;;;;;;5124479;28;20203;-70
2022/10/24 06:00:02;;;;;;;10.68;4.03;;;;;;;;;;5124888;28;20414;-70
2022/10/24 06:02:29;;;;;;;12.30;5.20;;;;;;;;;;5124677;28;20201;-70
2022/10/24 06:04:57;;;;;;;9.80;4.13;;;;;;;;;;5124486;28;20390;-70
2022/10/24 06:07:24;;;;;;;9.77;4.55;;;;;;;;;;5124618;28;20201;-70
2022/10/24 06:09:51;;;;;;;8.52;4.35;;;;;;;;;;5124281;28;20195;-70
2022/10/24 06:12:17;;;;;;;7.03;4.05;;;;;;;;;;5124672;28;20195;-69
2022/10/24 06:14:44;;;;;;;15.23;3.45;;;;;;;;;;5124583;28;20198;-69
2022/10/24 06:17:10;;;;;;;17.70;4.32;;;;;;;;;;5124439;28;20556;-69
2022/10/24 06:19:37;;;;;;;10.13;3.78;;;;;;;;;;5124048;28;20227;-57
2022/10/24 06:22:05;;;;;;;8.93;3.30;;;;;;;;;;5115702;28;20206;-58
2022/10/24 06:24:34;;;;;;;8.73;3.85;;;;;;;;;;5110728;28;20426;-58
2022/10/24 06:27:00;;;;;;;8.90;3.00;;;;;;;;;;5117918;28;20448;-58
2022/10/24 06:29:26;;;;;;;6.88;3.00;;;;;;;;;;5117724;27;20229;-60
2022/10/24 06:31:53;;;;;;;12.20;3.17;;;;;;;;;;5117505;28;20233;-59
2022/10/24 06:34:19;;;;;;;7.15;2.63;;;;;;;;;;5119439;28;20268;-59
2022/10/24 06:36:45;;;;;;;10.23;2.58;;;;;;;;;;5119939;28;20412;-58
2022/10/24 06:39:13;;;;;;;5.88;2.40;;;;;;;;;;5118375;28;20217;-57
2022/10/24 06:41:39;;;;;;;8.48;2.83;;;;;;;;;;5119506;28;20564;-58
2022/10/24 06:44:05;;;;;;;13.57;6.47;;;;;;;;;;5119810;28;20207;-59
2022/10/24 06:46:32;;;;;;;11.60;3.65;;;;;;;;;;5119838;28;20203;-61
2022/10/24 06:48:58;;;;;;;7.68;3.80;;;;;;;;;;5120066;28;20203;-60
2022/10/24 06:51:25;;;;;;;14.45;3.63;;;;;;;;;;5120629;28;20399;-58
2022/10/24 06:53:51;;;;;;;7.28;3.15;;;;;;;;;;5119606;28;20448;-57
2022/10/24 06:56:18;;;;;;;9.30;3.58;;;;;;;;;;5119393;28;20211;-57
2022/10/24 06:58:45;;;;;;;8.45;2.88;;;;;;;;;;5107574;28;20199;-57
2022/10/24 07:01:13;;;;;;;8.38;2.97;;;;;;;;;;5119641;28;20532;-57
2022/10/24 07:03:39;;;;;;;13.65;2.88;;;;;;;;;;5119517;27;20214;-57
2022/10/24 07:06:06;;;;;;;8.25;2.65;;;;;;;;;;5119199;28;20510;-59
2022/10/24 07:08:32;;;;;;;9.07;3.58;;;;;;;;;;5119681;28;20207;-58
2022/10/24 07:10:58;;;;;;;10.60;3.65;;;;;;;;;;5119204;28;20195;-59
2022/10/24 07:13:26;;;;;;;12.18;3.78;;;;;;;;;;5120784;28;20463;-58
2022/10/24 07:15:54;;;;;;;6.13;3.47;;;;;;;;;;5119585;28;20214;-58
2022/10/24 07:18:20;;;;;;;7.57;3.42;;;;;;;;;;5119624;28;20225;-58
2022/10/24 07:20:46;;;;;;;12.00;3.47;;;;;;;;;;5119900;28;20233;-59
2022/10/24 07:23:13;;;;;;;7.43;3.95;;;;;;;;;;5120008;28;20213;-59
2022/10/24 07:25:39;;;;;;;16.95;4.32;;;;;;;;;;5120252;28;20544;-58
2022/10/24 07:28:06;;;;;;;9.30;4.30;;;;;;;;;;5119000;28;20233;-57
2022/10/24 07:30:34;;;;;;;12.23;3.70;;;;;;;;;;5119360;28;20510;-58
2022/10/24 07:33:00;;;;;;;11.88;3.95;;;;;;;;;;5120257;28;20203;-58
2022/10/24 07:35:27;;;;;;;9.73;3.53;;;;;;;;;;5118991;28;20222;-57
2022/10/24 07:37:53;;;;;;;10.05;4.07;;;;;;;;;;5118849;28;20219;-57
2022/10/24 07:40:19;;;;;;;11.70;4.30;;;;;;;;;;5119693;28;20223;-59
2022/10/24 07:42:46;;;;;;;19.42;4.03;;;;;;;;;;5120390;28;20207;-59
2022/10/24 07:45:12;;;;;;;7.65;3.60;;;;;;;;;;5119658;28;20203;-59
2022/10/24 07:47:40;;;;;;;10.48;3.28;;;;;;;;;;5117929;28;20211;-59
2022/10/24 07:50:07;;;;;;;10.30;3.05;;;;;;;;;;5119313;28;20207;-59
2022/10/24 07:52:33;;;;;;;13.30;3.47;;;;;;;;;;5119193;28;20207;-59
2022/10/24 07:54:59;;;;;;;7.57;3.33;;;;;;;;;;5117947;28;20207;-58
2022/10/24 07:57:25;;;;;;;10.07;3.45;;;;;;;;;;5118699;28;20378;-57
2022/10/24 07:59:52;;;;;;;6.93;3.50;;;;;;;;;;5117921;28;20211;-57
2022/10/24 08:02:18;;;;;;;13.27;3.20;;;;;;;;;;5118882;28;20211;-57
2022/10/24 08:04:45;;;;;;;7.40;3.05;;;;;;;;;;5118766;28;20217;-56
2022/10/24 08:07:12;;;;;;;8.60;3.55;;;;;;;;;;5118728;28;20207;-57
2022/10/24 08:09:39;;;;;;;13.40;3.38;;;;;;;;;;5118080;28;20207;-55
2022/10/24 08:12:05;;;;;;;8.65;2.90;;;;;;;;;;5118998;28;20293;-57
2022/10/24 08:14:31;;;;;;;10.80;2.72;;;;;;;;;;5118507;28;20514;-57
2022/10/24 08:16:58;;;;;;;14.98;2.72;;;;;;;;;;5118160;28;20203;-57
2022/10/24 08:19:24;;;;;;;9.13;2.55;;;;;;;;;;5118396;28;20206;-57
2022/10/24 08:21:52;;;;;;;8.73;2.40;;;;;;;;;;5118890;28;20245;-57
2022/10/24 08:24:18;;;;;;;6.85;2.13;;;;;;;;;;5117914;28;20223;-57
2022/10/24 08:26:44;;;;;;;6.10;2.40;;;;;;;;;;5118842;28;20210;-57
2022/10/24 08:29:13;;;;;;;7.68;2.35;;;;;;;;;;5118218;28;20223;-57
2022/10/24 08:31:39;;;;;;;4.78;2.25;;;;;;;;;;5116984;28;20199;-57
2022/10/24 08:34:06;;;;;;;5.38;2.53;;;;;;;;;;5119064;28;20509;-57
2022/10/24 08:36:33;;;;;;;8.07;2.67;;;;;;;;;;5117303;28;20234;-57
2022/10/24 08:39:01;;;;;;;10.88;2.70;;;;;;;;;;5118267;28;20215;-57
2022/10/24 08:41:30;;;;;;;10.75;3.33;;;;;;;;;;5117902;28;20229;-57
2022/10/24 08:43:58;;;;;;;13.23;3.08;;;;;;;;;;5118060;28;20207;-57
2022/10/24 08:46:33;;;;;;;7.97;2.65;;;;;;;;;;5118048;28;20522;-57
2022/10/24 08:49:02;;;;;;;11.27;3.28;;;;;;;;;;5118056;28;20389;-58
2022/10/24 08:51:34;;;;;;;11.18;2.67;;;;;;;;;;5118986;28;20199;-58
2022/10/24 08:54:02;;;;;;;12.32;3.53;;;;;;;;;;5118690;28;20209;-58
2022/10/24 08:56:31;;;;;;;7.53;3.08;;;;;;;;;;5118311;28;20555;-58
2022/10/24 08:58:59;;;;;;;6.70;3.03;;;;;;;;;;5118971;28;20391;-57
2022/10/24 09:01:29;;;;;;;5.57;2.90;;;;;;;;;;5118177;28;20447;-57
2022/10/24 09:03:58;;;;;;;8.30;2.67;;;;;;;;;;5119759;28;20210;-58
2022/10/24 09:06:26;;;;;;;9.40;2.83;;;;;;;;;;5122599;28;20399;-57
2022/10/24 09:08:53;;;;;;;12.68;2.83;;;;;;;;;;5121944;28;20210;-58
2022/10/24 09:11:24;;;;;;;5.10;2.45;;;;;;;;;;5121951;27;20199;-59
2022/10/24 09:13:51;;;;;;;9.93;3.08;;;;;;;;;;5123339;28;20203;-59
2022/10/24 09:16:20;;;;;;;8.98;3.45;;;;;;;;;;5122535;28;20210;-59
2022/10/24 09:18:48;;;;;;;8.95;2.55;;;;;;;;;;5102251;28;20210;-59
2022/10/24 09:21:14;;;;;;;8.68;2.60;;;;;;;;;;5119481;28;20237;-58
2022/10/24 09:23:42;;;;;;;5.85;2.75;;;;;;;;;;5121535;28;20218;-58
2022/10/24 09:26:13;;;;;;;5.55;2.45;;;;;;;;;;5121386;28;20207;-58
2022/10/24 09:28:41;;;;;;;7.32;2.78;;;;;;;;;;5121852;28;20253;-58
2022/10/24 09:31:12;;;;;;;11.50;3.13;;;;;;;;;;5122538;28;20371;-57
2022/10/24 09:33:41;;;;;;;9.45;2.88;;;;;;;;;;5122616;28;20210;-57
2022/10/24 09:36:09;;;;;;;13.13;3.00;;;;;;;;;;5122005;28;20298;-59
2022/10/24 09:38:38;;;;;;;9.02;3.00;;;;;;;;;;5121771;28;20219;-57
2022/10/24 09:41:06;;;;;;;9.00;2.90;;;;;;;;;;5121496;28;20237;-59
2022/10/24 09:43:39;;;;;;;6.90;2.80;;;;;;;;;;5118856;28;20752;-58
2022/10/24 09:46:08;;;;;;;13.02;3.00;;;;;;;;;;5118245;28;20217;-59
2022/10/24 09:48:39;;;;;;;7.05;3.17;;;;;;;;;;5118240;28;20400;-58
2022/10/24 09:51:06;;;;;;;12.02;2.97;;;;;;;;;;5118697;28;20210;-57
2022/10/24 09:53:34;;;;;;;11.68;3.45;;;;;;;;;;5117951;28;20403;-60
2022/10/24 09:56:01;;;;;;;11.80;2.70;;;;;;;;;;5117438;28;20211;-60
2022/10/24 09:58:32;;;;;;;10.65;3.20;;;;;;;;;;5117864;28;20210;-60
2022/10/24 10:01:00;;;;;;;9.27;3.13;;;;;;;;;;5117998;28;20222;-60
2022/10/24 10:03:28;;;;;;;10.18;2.67;;;;;;;;;;5117936;28;20203;-60
2022/10/24 10:05:54;;;;;;;7.97;2.90;;;;;;;;;;5117879;28;20211;-58
2022/10/24 10:08:22;;;;;;;12.50;4.75;;;;;;;;;;5117530;28;20306;-59
2022/10/24 10:10:58;;;;;;;14.13;4.20;;;;;;;;;;5117010;28;20207;-60
2022/10/24 10:13:26;;;;;;;17.38;4.97;;;;;;;;;;5117130;28;20210;-59
2022/10/24 10:15:53;;;;;;;21.02;8.77;;;;;;;;;;5116243;28;20261;-58
2022/10/24 10:18:24;;;;;;;20.98;8.27;;;;;;;;;;5116780;28;20207;-58
2022/10/24 10:21:06;;;;;;;20.05;8.02;;;;;;;;;;5116885;28;20537;-59
2022/10/24 10:23:35;;;;;;;20.10;6.85;;;;;;;;;;5114430;28;20229;-59
2022/10/24 10:26:02;;;;;;;18.15;7.22;;;;;;;;;;5116952;28;20240;-59
2022/10/24 10:28:28;;;;;;;15.60;5.57;;;;;;;;;;5117420;28;20234;-59
2022/10/24 10:30:58;;;;;;;15.10;5.38;;;;;;;;;;5116797;28;20544;-59
2022/10/24 10:33:29;;;;;;;18.55;4.75;;;;;;;;;;5116730;28;20218;-59
2022/10/24 10:35:58;;;;;;;7.97;3.78;;;;;;;;;;5116722;28;20268;-59
2022/10/24 10:38:42;;;;;;;8.50;3.50;;;;;;;;;;5116668;28;20568;-59
2022/10/24 10:41:12;;;;;;;10.77;3.35;;;;;;;;;;5116092;28;20542;-59
2022/10/24 10:43:43;;;;;;;6.90;3.42;;;;;;;;;;5116001;28;20481;-59
2022/10/24 10:46:14;;;;;;;9.35;4.05;;;;;;;;;;5116007;28;20211;-60
2022/10/24 10:48:47;;;;;;;10.35;4.38;;;;;;;;;;5115997;28;20211;-58
2022/10/24 10:51:20;;;;;;;8.45;3.83;;;;;;;;;;5117072;28;20398;-58
2022/10/24 10:53:52;;;;;;;6.82;3.30;;;;;;;;;;5116293;28;20203;-58
2022/10/24 10:56:24;;;;;;;10.65;3.17;;;;;;;;;;5116461;28;20364;-58
2022/10/24 10:58:56;;;;;;;8.80;2.80;;;;;;;;;;5116338;28;20207;-58
2022/10/24 11:01:26;;;;;;;4.60;2.30;;;;;;;;;;5116913;28;20227;-58
2022/10/24 11:03:55;;;;;;;8.50;1.73;;;;;;;;;;5116031;28;20218;-58
2022/10/24 11:06:28;;;;;;;5.35;1.80;;;;;;;;;;5116604;28;20211;-58
2022/10/24 11:09:10;;;;;;;5.68;1.85;;;;;;;;;;5115169;28;20217;-57
2022/10/24 11:11:38;;;;;;;4.68;1.77;;;;;;;;;;5115262;28;20207;-57
2022/10/24 11:14:06;;;;;;;4.15;2.03;;;;;;;;;;5116503;28;20207;-58
2022/10/24 11:16:33;;;;;;;3.60;2.00;;;;;;;;;;5115392;28;20218;-58
2022/10/24 11:19:01;;;;;;;4.97;1.70;;;;;;;;;;5116300;28;20234;-58
2022/10/24 11:21:29;;;;;;;6.70;2.03;;;;;;;;;;5115352;28;20436;-58
2022/10/24 11:23:57;;;;;;;6.00;2.08;;;;;;;;;;5115053;28;20215;-59
2022/10/24 11:26:27;;;;;;;5.93;1.88;;;;;;;;;;5115272;28;20431;-58
2022/10/24 11:28:57;;;;;;;5.10;1.92;;;;;;;;;;5115344;28;20233;-58
2022/10/24 11:31:25;;;;;;;4.15;1.95;;;;;;;;;;5115273;27;20434;-58
2022/10/24 11:33:55;;;;;;;2.90;1.80;;;;;;;;;;5115405;28;20211;-59
2022/10/24 11:36:25;;;;;;;5.97;1.52;;;;;;;;;;5115764;28;20217;-58
2022/10/24 11:38:57;;;;;;;6.93;1.60;;;;;;;;;;5115511;28;20226;-58
2022/10/24 11:41:31;;;;;;;1.65;1.40;;;;;;;;;;5115413;28;20226;-58
2022/10/24 11:44:00;;;;;;;3.08;1.42;;;;;;;;;;5114956;28;20211;-59
2022/10/24 11:46:32;;;;;;;3.40;1.40;;;;;;;;;;5115366;27;20210;-57
2022/10/24 11:49:00;;;;;;;6.75;1.42;;;;;;;;;;5115524;28;20210;-59
2022/10/24 11:51:29;;;;;;;3.55;1.58;;;;;;;;;;5115499;28;20207;-59
2022/10/24 11:53:57;;;;;;;4.47;1.50;;;;;;;;;;5115017;28;20215;-59
2022/10/24 11:56:29;;;;;;;4.80;1.20;;;;;;;;;;5115404;28;20465;-59
2022/10/24 11:58:59;;;;;;;1.67;1.23;;;;;;;;;;5115344;28;20215;-59
2022/10/24 12:01:44;;;;;;;4.47;1.30;;;;;;;;;;5115557;28;20223;-60
2022/10/24 12:04:30;;;;;;;4.65;1.48;;;;;;;;;;5115038;28;20218;-59
2022/10/24 12:07:05;;;;;;;6.38;1.40;;;;;;;;;;5114999;28;20284;-58
2022/10/24 12:09:46;;;;;;;3.90;1.35;;;;;;;;;;5115391;28;20214;-58
2022/10/24 12:12:20;;;;;;;2.28;1.60;;;;;;;;;;5114986;28;20206;-58
2022/10/24 12:14:58;;;;;;;7.78;1.70;;;;;;;;;;5114893;28;20579;-58
2022/10/24 12:17:32;;;;;;;7.18;2.03;;;;;;;;;;5114828;28;20207;-60
2022/10/24 12:20:00;;;;;;;3.13;1.38;;;;;;;;;;5115504;28;20552;-59
2022/10/24 12:22:30;;;;;;;3.78;1.48;;;;;;;;;;5115336;28;20428;-60
2022/10/24 12:25:04;;;;;;;3.85;1.48;;;;;;;;;;5114993;28;20443;-59
2022/10/24 12:27:34;;;;;;;2.10;1.23;;;;;;;;;;5114589;28;20240;-58
2022/10/24 12:30:03;;;;;;;4.43;1.52;;;;;;;;;;5115307;28;20461;-58
2022/10/24 12:32:36;;;;;;;7.47;1.35;;;;;;;;;;5115634;28;20207;-58
2022/10/24 12:35:03;;;;;;;2.47;1.33;;;;;;;;;;5115809;28;20540;-58
2022/10/24 12:37:34;;;;;;;3.75;1.08;;;;;;;;;;5114650;28;20219;-58
2022/10/24 12:40:20;;;;;;;3.50;1.58;;;;;;;;;;5117563;28;20214;-58
2022/10/24 12:43:07;;;;;;;4.38;1.10;;;;;;;;;;5115172;28;20241;-57
2022/10/24 12:45:35;;;;;;;2.80;0.90;;;;;;;;;;5118906;28;20217;-58
2022/10/24 12:48:20;;;;;;;2.63;1.00;;;;;;;;;;5118603;28;20211;-58
2022/10/24 12:50:56;;;;;;;3.28;0.90;;;;;;;;;;5118756;28;20435;-57
2022/10/24 12:53:58;;;;;;;3.45;0.90;;;;;;;;;;5118312;28;20211;-57
2022/10/24 12:56:25;;;;;;;4.15;0.80;;;;;;;;;;5118830;28;20418;-58
2022/10/24 12:58:58;;;;;;;1.25;0.95;;;;;;;;;;5118456;27;20427;-58
2022/10/24 13:01:31;;;;;;;7.45;1.88;;;;;;;;;;5119002;28;20242;-58
2022/10/24 13:04:05;;;;;;;5.88;1.17;;;;;;;;;;5118597;28;20229;-58
2022/10/24 13:06:34;;;;;;;5.32;1.23;;;;;;;;;;5118327;28;20237;-58
2022/10/24 13:09:13;;;;;;;1.33;0.90;;;;;;;;;;5118476;28;20210;-58
2022/10/24 13:11:48;;;;;;;1.90;1.20;;;;;;;;;;5118179;28;20411;-58
2022/10/24 13:14:27;;;;;;;2.65;1.05;;;;;;;;;;5118341;28;20206;-58
2022/10/24 13:16:58;;;;;;;2.22;0.90;;;;;;;;;;5118439;28;20207;-58
2022/10/24 13:19:26;;;;;;;2.50;1.00;;;;;;;;;;5118938;28;20211;-58
2022/10/24 13:21:53;;;;;;;1.30;1.20;;;;;;;;;;5118907;28;20223;-58
2022/10/24 13:24:21;;;;;;;1.85;0.95;;;;;;;;;;5118095;28;20211;-58
2022/10/24 13:26:50;;;;;;;2.53;0.70;;;;;;;;;;5118152;28;20211;-58
2022/10/24 13:29:36;;;;;;;1.13;0.85;;;;;;;;;;5117698;28;20251;-58
2022/10/24 13:32:17;;;;;;;4.18;0.70;;;;;;;;;;5118043;28;20207;-58
2022/10/24 13:34:52;;;;;;;1.48;0.90;;;;;;;;;;5117077;28;20236;-58
2022/10/24 13:37:21;;;;;;;2.85;1.00;;;;;;;;;;5118591;28;20276;-59
2022/10/24 13:39:50;;;;;;;1.77;0.70;;;;;;;;;;5117809;28;20211;-59
2022/10/24 13:42:20;;;;;;;3.40;0.60;;;;;;;;;;5118064;27;20227;-59
2022/10/24 13:44:49;;;;;;;0.70;0.70;;;;;;;;;;5117951;28;20222;-59
2022/10/24 13:47:18;;;;;;;3.67;0.80;;;;;;;;;;5118525;28;20211;-59
2022/10/24 13:49:50;;;;;;;1.83;1.17;;;;;;;;;;5117415;28;20526;-59
2022/10/24 13:52:19;;;;;;;1.02;0.82;;;;;;;;;;5118222;28;20207;-59
2022/10/24 13:54:47;;;;;;;3.50;1.42;;;;;;;;;;5118171;28;20229;-59
2022/10/24 13:57:23;;;;;;;4.30;1.30;;;;;;;;;;5118083;28;20611;-59
2022/10/24 13:59:53;;;;;;;2.60;1.25;;;;;;;;;;5116874;28;20210;-58
2022/10/24 14:02:21;;;;;;;2.50;0.90;;;;;;;;;;5117365;27;20238;-58
2022/10/24 14:04:49;;;;;;;3.28;1.25;;;;;;;;;;5117658;28;20219;-58
2022/10/24 14:07:18;;;;;;;1.50;0.90;;;;;;;;;;5117850;27;20211;-59
2022/10/24 14:09:49;;;;;;;1.20;0.90;;;;;;;;;;5118057;28;20541;-59
2022/10/24 14:12:19;;;;;;;0.70;0.70;;;;;;;;;;5117680;28;20222;-59
2022/10/24 14:14:48;;;;;;;4.32;1.42;;;;;;;;;;5118019;28;20221;-59
2022/10/24 14:17:18;;;;;;;1.67;1.50;;;;;;;;;;5118487;28;20506;-58
2022/10/24 14:19:50;;;;;;;1.33;1.20;;;;;;;;;;5118233;28;20402;-59
2022/10/24 14:22:19;;;;;;;1.70;1.27;;;;;;;;;;5117164;28;20215;-57
2022/10/24 14:24:45;;;;;;;2.97;1.10;;;;;;;;;;5116398;28;20211;-57
2022/10/24 14:27:13;;;;;;;3.50;1.27;;;;;;;;;;5117590;28;20243;-58
2022/10/24 14:29:39;;;;;;;1.17;1.00;;;;;;;;;;5117257;28;20530;-58
2022/10/24 14:32:07;;;;;;;3.60;1.50;;;;;;;;;;5117102;28;20211;-57
2022/10/24 14:34:35;;;;;;;2.03;1.00;;;;;;;;;;5118626;28;20207;-58
2022/10/24 14:37:05;;;;;;;1.95;0.85;;;;;;;;;;5118406;28;20199;-58
2022/10/24 14:39:31;;;;;;;1.60;0.82;;;;;;;;;;5118350;28;20506;-59
2022/10/24 14:42:00;;;;;;;3.78;1.58;;;;;;;;;;5117859;28;20237;-59
2022/10/24 14:44:27;;;;;;;3.58;1.60;;;;;;;;;;5118017;28;20198;-58
2022/10/24 14:47:01;;;;;;;2.70;1.58;;;;;;;;;;5118511;28;20439;-57
2022/10/24 14:49:29;;;;;;;1.98;1.88;;;;;;;;;;5118398;28;20206;-55